createdAt,value
2019-04-26T00:01:23.689Z,2.93
2019-04-26T00:03:54.080Z,2.77
2019-04-26T00:06:24.988Z,3.40
2019-04-26T00:09:01.862Z,2.83
2019-04-26T00:11:41.567Z,2.60
2019-04-26T00:14:29.186Z,4.80
2019-04-26T00:17:01.327Z,2.50
2019-04-26T00:19:29.504Z,3.10
2019-04-26T00:21:59.455Z,3.30
2019-04-26T00:24:30.285Z,5.57
2019-04-26T00:26:58.099Z,4.00
2019-04-26T00:29:28.213Z,3.03
2019-04-26T00:31:56.313Z,2.47
2019-04-26T00:34:24.284Z,4.37
2019-04-26T00:36:54.407Z,3.30
2019-04-26T00:39:24.158Z,2.90
2019-04-26T00:41:52.128Z,1.73
2019-04-26T00:44:20.911Z,3.73
2019-04-26T00:46:52.751Z,4.57
2019-04-26T00:49:23.258Z,3.67
2019-04-26T00:51:54.328Z,4.93
2019-04-26T00:54:24.310Z,4.83
2019-04-26T00:56:53.742Z,5.93
2019-04-26T00:59:25.100Z,2.80
2019-04-26T01:01:57.703Z,2.23
2019-04-26T01:04:25.383Z,2.13
2019-04-26T01:06:56.179Z,2.10
2019-04-26T01:09:25.687Z,4.60
2019-04-26T01:11:54.887Z,2.90
2019-04-26T01:14:24.080Z,2.87
2019-04-26T01:16:52.833Z,4.60
2019-04-26T01:19:23.094Z,2.30
2019-04-26T01:21:57.986Z,2.83
2019-04-26T01:24:28.931Z,3.07
2019-04-26T01:27:01.812Z,3.37
2019-04-26T01:29:31.125Z,2.37
2019-04-26T01:32:29.173Z,2.07
2019-04-26T01:35:03.140Z,2.70
2019-04-26T01:37:35.585Z,2.87
2019-04-26T01:40:08.628Z,4.40
2019-04-26T01:43:13.729Z,2.13
2019-04-26T01:46:40.366Z,9.60
2019-04-26T01:49:10.898Z,2.13
2019-04-26T01:51:44.213Z,3.67
2019-04-26T01:54:15.319Z,3.20
2019-04-26T01:56:44.942Z,3.87
2019-04-26T01:59:16.598Z,2.97
2019-04-26T02:02:20.041Z,2.63
2019-04-26T02:04:58.514Z,2.73
2019-04-26T02:07:37.786Z,4.07
2019-04-26T02:10:08.913Z,5.73
2019-04-26T02:12:40.158Z,9.60
2019-04-26T02:15:10.466Z,2.70
2019-04-26T02:17:40.159Z,5.53
2019-04-26T02:20:08.835Z,4.10
2019-04-26T02:23:01.512Z,2.97
2019-04-26T02:25:32.002Z,5.50
2019-04-26T02:28:00.243Z,5.23
2019-04-26T02:30:31.236Z,5.63
2019-04-26T02:33:00.191Z,2.83
2019-04-26T02:35:32.176Z,5.33
2019-04-26T02:38:02.010Z,4.57
2019-04-26T02:40:31.682Z,3.57
2019-04-26T02:43:00.157Z,4.97
2019-04-26T02:46:11.388Z,2.80
2019-04-26T02:49:04.308Z,4.63
2019-04-26T02:51:36.925Z,4.07
2019-04-26T02:54:18.289Z,4.43
2019-04-26T02:56:51.105Z,3.47
2019-04-26T02:59:47.743Z,3.63
2019-04-26T03:02:25.696Z,2.80
2019-04-26T03:05:00.356Z,6.67
2019-04-26T03:07:57.700Z,3.80
2019-04-26T03:10:50.691Z,2.30
2019-04-26T03:13:43.719Z,2.43
2019-04-26T03:16:43.072Z,2.50
2019-04-26T03:19:25.637Z,4.50
2019-04-26T03:22:28.557Z,5.43
2019-04-26T03:25:08.505Z,4.13
2019-04-26T03:28:03.304Z,2.50
2019-04-26T03:31:02.442Z,3.50
2019-04-26T03:34:11.321Z,1.63
2019-04-26T03:37:40.448Z,7.33
2019-04-26T03:40:38.987Z,2.70
2019-04-26T03:43:40.707Z,2.63
2019-04-26T03:46:30.875Z,3.07
2019-04-26T03:49:57.647Z,5.53
2019-04-26T04:00:47.108Z,3.73
2019-04-26T04:03:43.945Z,3.03
2019-04-26T04:06:19.450Z,3.80
2019-04-26T04:08:54.427Z,3.70
2019-04-26T04:11:37.836Z,2.77
2019-04-26T04:14:12.208Z,4.73
2019-04-26T04:17:27.791Z,4.37
2019-04-26T04:20:42.595Z,5.10
2019-04-26T04:24:05.368Z,6.50
2019-04-26T04:27:10.292Z,4.17
2019-04-26T04:30:09.486Z,3.73
2019-04-26T04:33:21.320Z,6.37
2019-04-26T04:35:53.649Z,3.70
2019-04-26T04:39:11.004Z,2.77
2019-04-26T04:41:41.115Z,3.80
2019-04-26T04:44:25.724Z,5.27
2019-04-26T04:47:48.120Z,5.40
2019-04-26T04:51:07.037Z,2.63
2019-04-26T04:55:04.406Z,6.03
2019-04-26T04:58:04.513Z,4.03
2019-04-26T05:01:20.786Z,3.50
2019-04-26T05:04:04.318Z,3.13
2019-04-26T05:06:49.443Z,3.50
2019-04-26T05:09:28.173Z,5.10
2019-04-26T05:12:26.523Z,3.10
2019-04-26T05:18:02.380Z,3.40
2019-04-26T05:24:53.530Z,6.27
2019-04-26T05:28:14.199Z,2.60
2019-04-26T05:31:23.619Z,3.87
2019-04-26T05:34:11.740Z,3.73
2019-04-26T05:37:06.489Z,6.83
2019-04-26T05:39:55.978Z,2.57
2019-04-26T05:43:36.830Z,5.33
2019-04-26T05:47:00.983Z,4.37
2019-04-26T05:50:19.300Z,4.23
2019-04-26T05:53:57.169Z,6.10
2019-04-26T05:56:56.314Z,7.20
2019-04-26T06:00:28.114Z,6.20
2019-04-26T06:03:32.356Z,4.07
2019-04-26T06:06:28.384Z,6.13
2019-04-26T06:09:39.955Z,4.40
2019-04-26T06:12:41.292Z,6.80
2019-04-26T06:15:33.466Z,5.93
2019-04-26T06:18:36.800Z,3.70
2019-04-26T06:21:38.416Z,4.87
2019-04-26T06:24:41.878Z,3.10
2019-04-26T06:31:14.668Z,3.60
2019-04-26T06:34:25.748Z,7.77
2019-04-26T06:37:15.720Z,7.43
2019-04-26T06:40:02.210Z,4.80
2019-04-26T06:43:12.222Z,7.27
2019-04-26T06:46:23.311Z,4.27
2019-04-26T06:49:52.327Z,3.90
2019-04-26T06:52:24.380Z,7.00
2019-04-26T06:55:04.970Z,6.13
2019-04-26T06:59:10.242Z,5.70
2019-04-26T07:09:52.781Z,3.23
2019-04-26T07:12:42.593Z,7.43
2019-04-26T07:15:52.063Z,5.03
2019-04-26T07:19:03.418Z,7.73
2019-04-26T07:22:19.618Z,4.87
2019-04-26T07:25:39.092Z,5.07
2019-04-26T07:28:31.871Z,7.17
2019-04-26T07:32:03.032Z,4.73
2019-04-26T07:39:48.239Z,5.00
2019-04-26T07:43:06.035Z,3.40
2019-04-26T07:50:31.686Z,2.67
2019-04-26T07:56:59.133Z,4.40
2019-04-26T08:00:22.709Z,5.10
2019-04-26T08:03:28.912Z,3.80
2019-04-26T08:06:49.624Z,3.53
2019-04-26T08:09:59.806Z,4.77
2019-04-26T08:12:24.591Z,4.83
2019-04-26T08:15:33.627Z,6.80
2019-04-26T08:18:23.511Z,4.77
2019-04-26T08:21:19.523Z,5.77
2019-04-26T08:24:51.031Z,4.43
2019-04-26T08:27:29.617Z,3.87
2019-04-26T08:30:10.243Z,5.60
2019-04-26T08:32:41.485Z,12.57
2019-04-26T08:39:05.948Z,4.37
2019-04-26T08:42:21.039Z,3.93
2019-04-26T08:45:10.337Z,4.87
2019-04-26T08:48:10.411Z,4.27
2019-04-26T08:50:54.057Z,5.40
2019-04-26T08:53:24.215Z,5.67
2019-04-26T08:55:57.684Z,4.60
2019-04-26T08:58:30.027Z,4.43
2019-04-26T09:01:23.556Z,4.27
2019-04-26T09:07:58.883Z,5.80
2019-04-26T09:10:43.102Z,6.00
2019-04-26T09:13:25.384Z,4.53
2019-04-26T09:16:17.075Z,4.00
2019-04-26T09:19:03.141Z,4.93
2019-04-26T09:21:42.659Z,4.23
2019-04-26T09:24:38.640Z,4.77
2019-04-26T09:28:04.225Z,5.63
2019-04-26T09:30:47.625Z,4.10
2019-04-26T09:33:22.351Z,7.13
2019-04-26T09:35:56.805Z,4.27
2019-04-26T09:38:34.853Z,4.50
2019-04-26T09:41:18.101Z,6.50
2019-04-26T09:44:56.882Z,4.63
2019-04-26T09:47:47.035Z,4.40
2019-04-26T09:50:50.136Z,5.93
2019-04-26T09:54:00.529Z,5.53
2019-04-26T09:57:13.391Z,5.10
2019-04-26T10:00:04.247Z,4.70
2019-04-26T10:06:21.156Z,11.00
2019-04-26T10:09:21.180Z,6.30
2019-04-26T10:11:55.843Z,6.20
2019-04-26T10:15:03.204Z,5.03
2019-04-26T10:20:51.214Z,5.57
2019-04-26T10:24:09.024Z,7.93
2019-04-26T10:27:12.530Z,6.57
2019-04-26T10:30:07.611Z,6.93
2019-04-26T10:32:37.610Z,4.90
2019-04-26T10:39:15.422Z,6.10
2019-04-26T10:42:14.038Z,5.00
2019-04-26T10:45:41.352Z,5.40
2019-04-26T10:59:57.125Z,7.13
2019-04-26T11:03:35.070Z,5.03
2019-04-26T11:06:16.731Z,5.33
2019-04-26T11:09:23.196Z,4.93
2019-04-26T11:11:41.432Z,5.17
2019-04-26T11:14:28.821Z,4.53
2019-04-26T11:17:02.674Z,5.30
2019-04-26T11:19:49.256Z,5.03
2019-04-26T11:22:28.573Z,5.27
2019-04-26T11:24:50.143Z,5.87
2019-04-26T11:27:20.184Z,7.17
2019-04-26T11:29:54.805Z,5.90
2019-04-26T11:32:33.142Z,6.20
2019-04-26T11:35:51.920Z,7.07
2019-04-26T11:38:26.823Z,7.07
2019-04-26T11:41:06.008Z,5.53
2019-04-26T11:43:23.604Z,5.60
2019-04-26T11:46:45.040Z,4.30
2019-04-26T11:52:48.841Z,5.07
2019-04-26T11:55:18.914Z,5.03
2019-04-26T11:57:50.048Z,4.60
2019-04-26T12:00:30.179Z,4.37
2019-04-26T12:09:29.256Z,6.27
2019-04-26T12:12:16.986Z,4.43
2019-04-26T12:19:52.287Z,3.80
2019-04-26T12:22:28.270Z,6.37
2019-04-26T12:25:07.268Z,5.50
2019-04-26T12:27:34.843Z,5.30
2019-04-26T12:30:12.562Z,6.90
2019-04-26T12:32:41.796Z,3.60
2019-04-26T12:35:11.257Z,6.17
2019-04-26T12:37:43.087Z,3.97
2019-04-26T12:40:26.721Z,4.47
2019-04-26T12:42:59.395Z,3.50
2019-04-26T12:45:47.417Z,4.10
2019-04-26T12:48:18.811Z,4.97
2019-04-26T12:50:58.720Z,5.07
2019-04-26T12:53:31.495Z,5.33
2019-04-26T12:55:59.189Z,4.73
2019-04-26T12:58:31.725Z,5.30
2019-04-26T13:01:08.006Z,5.37
2019-04-26T13:03:40.771Z,6.60
2019-04-26T13:06:11.210Z,5.77
2019-04-26T13:08:40.929Z,4.50
2019-04-26T13:11:48.747Z,5.97
2019-04-26T13:14:58.045Z,7.63
2019-04-26T13:17:38.527Z,5.50
2019-04-26T13:20:07.687Z,7.63
2019-04-26T13:22:46.024Z,4.80
2019-04-26T13:25:15.422Z,4.93
2019-04-26T13:28:21.818Z,5.47
2019-04-26T13:31:06.672Z,5.00
2019-04-26T13:34:05.229Z,7.03
2019-04-26T13:37:16.096Z,6.17
2019-04-26T13:39:51.374Z,7.83
2019-04-26T13:47:37.284Z,6.07
2019-04-26T13:50:37.997Z,8.67
2019-04-26T13:56:49.879Z,5.67
2019-04-26T14:03:34.306Z,6.77
2019-04-26T14:06:01.971Z,7.17
2019-04-26T14:13:24.946Z,6.70
2019-04-26T14:20:05.361Z,5.83
2019-04-26T14:23:33.627Z,6.60
2019-04-26T14:26:45.906Z,6.87
2019-04-26T14:29:32.521Z,7.03
2019-04-26T14:36:18.395Z,7.87
2019-04-26T14:43:23.801Z,6.20
2019-04-26T14:45:56.401Z,6.97
2019-04-26T14:48:35.798Z,10.27
2019-04-26T14:51:22.450Z,6.30
2019-04-26T14:54:07.307Z,5.93
2019-04-26T14:56:35.425Z,7.43
2019-04-26T15:03:51.523Z,8.20
2019-04-26T15:06:25.795Z,6.37
2019-04-26T15:08:53.838Z,8.70
2019-04-26T15:11:26.303Z,10.07
2019-04-26T15:21:14.750Z,7.80
2019-04-26T15:23:44.471Z,7.80
2019-04-26T15:26:18.453Z,8.43
2019-04-26T15:28:50.467Z,7.43
2019-04-26T15:31:53.667Z,7.30
2019-04-26T15:34:58.568Z,10.93
2019-04-26T15:37:42.231Z,6.20
2019-04-26T15:44:15.760Z,6.43
2019-04-26T15:47:29.690Z,12.80
2019-04-26T15:50:13.047Z,8.63
2019-04-26T15:53:14.766Z,6.47
2019-04-26T15:56:22.278Z,8.80
2019-04-26T16:10:12.161Z,6.13
2019-04-26T16:12:40.129Z,7.30
2019-04-26T16:15:17.597Z,6.50
2019-04-26T16:28:22.836Z,6.93
2019-04-26T16:31:32.214Z,8.30
2019-04-26T16:34:10.876Z,8.27
2019-04-26T16:36:47.670Z,9.20
2019-04-26T16:39:18.923Z,10.43
2019-04-26T16:41:51.874Z,10.87
2019-04-26T16:44:29.976Z,8.80
2019-04-26T16:47:29.292Z,9.23
2019-04-26T16:50:02.041Z,9.63
2019-04-26T16:52:30.220Z,6.40
2019-04-26T16:55:04.345Z,8.03
2019-04-26T16:57:54.752Z,8.47
2019-04-26T17:00:51.719Z,8.27
2019-04-26T17:03:11.821Z,9.40
2019-04-26T17:09:55.723Z,10.27
2019-04-26T17:12:30.837Z,10.63
2019-04-26T17:15:10.761Z,8.27
2019-04-26T17:18:23.909Z,9.10
2019-04-26T17:21:05.127Z,6.07
2019-04-26T17:27:36.140Z,8.10
2019-04-26T17:30:44.458Z,10.10
2019-04-26T17:33:27.782Z,7.30
2019-04-26T17:35:51.720Z,7.33
2019-04-26T17:38:20.728Z,9.83
2019-04-26T17:40:58.695Z,8.23
2019-04-26T17:43:21.239Z,9.73
2019-04-26T17:45:54.240Z,8.63
2019-04-26T17:48:27.116Z,9.23
2019-04-26T17:50:57.695Z,9.87
2019-04-26T17:53:33.196Z,10.73
2019-04-26T17:56:00.571Z,9.60
2019-04-26T17:58:33.613Z,9.60
2019-04-26T18:01:03.935Z,8.67
2019-04-26T18:03:33.398Z,9.80
2019-04-26T18:06:09.487Z,10.83
2019-04-26T18:08:45.441Z,11.13
2019-04-26T18:11:32.964Z,10.07
2019-04-26T18:14:02.867Z,11.23
2019-04-26T18:16:37.871Z,11.93
2019-04-26T18:19:31.890Z,12.80
2019-04-26T18:22:35.223Z,15.67
2019-04-26T18:25:32.078Z,12.43
2019-04-26T18:28:01.931Z,12.27
2019-04-26T18:30:35.138Z,12.00
2019-04-26T18:33:21.710Z,14.37
2019-04-26T18:35:57.781Z,12.27
2019-04-26T18:38:28.607Z,12.73
2019-04-26T18:41:03.544Z,12.50
2019-04-26T18:43:49.383Z,11.73
2019-04-26T18:46:28.226Z,11.53
2019-04-26T18:49:18.900Z,13.13
2019-04-26T18:51:48.500Z,13.27
2019-04-26T18:54:24.050Z,14.00
2019-04-26T18:57:03.426Z,13.60
2019-04-26T18:59:52.852Z,12.87
2019-04-26T19:02:27.666Z,13.90
2019-04-26T19:04:56.707Z,11.73
2019-04-26T19:11:00.740Z,13.13
2019-04-26T19:13:58.636Z,11.10
2019-04-26T19:16:50.217Z,12.77
2019-04-26T19:19:55.239Z,12.30
2019-04-26T19:23:03.322Z,12.00
2019-04-26T19:28:29.828Z,13.67
2019-04-26T19:31:03.748Z,15.10
2019-04-26T19:34:19.446Z,13.30
2019-04-26T19:37:09.383Z,14.53
2019-04-26T19:39:42.691Z,16.03
2019-04-26T19:42:13.209Z,15.63
2019-04-26T19:45:11.747Z,17.60
2019-04-26T19:47:56.610Z,14.70
2019-04-26T19:50:50.494Z,16.60
2019-04-26T19:53:36.369Z,16.53
2019-04-26T19:56:17.306Z,14.97
2019-04-26T19:58:57.518Z,12.90
2019-04-26T20:01:41.959Z,14.20
2019-04-26T20:04:17.786Z,14.17
2019-04-26T20:06:52.441Z,15.20
2019-04-26T20:12:38.155Z,15.00
2019-04-26T20:15:25.885Z,15.20
2019-04-26T20:18:00.286Z,14.50
2019-04-26T20:20:34.670Z,16.93
2019-04-26T20:23:22.936Z,14.20
2019-04-26T20:25:53.061Z,18.37
2019-04-26T20:28:53.135Z,16.30
2019-04-26T20:32:07.534Z,16.23
2019-04-26T20:35:04.763Z,16.30
2019-04-26T20:37:36.248Z,17.20
2019-04-26T20:40:18.457Z,18.37
2019-04-26T20:42:51.203Z,18.67
2019-04-26T20:45:41.315Z,16.40
2019-04-26T20:48:13.287Z,17.37
2019-04-26T20:50:47.626Z,18.87
2019-04-26T20:53:21.928Z,18.97
2019-04-26T20:55:54.252Z,17.10
2019-04-26T20:58:27.700Z,15.07
2019-04-26T21:01:06.441Z,15.63
2019-04-26T21:03:46.651Z,17.03
2019-04-26T21:06:29.329Z,20.97
2019-04-26T21:09:06.481Z,19.50
2019-04-26T21:11:38.246Z,16.73
2019-04-26T21:18:12.405Z,18.00
2019-04-26T21:20:43.529Z,17.27
2019-04-26T21:23:16.822Z,19.67
2019-04-26T21:26:02.939Z,17.70
2019-04-26T21:29:03.326Z,18.83
2019-04-26T21:32:00.496Z,19.20
2019-04-26T21:34:44.908Z,20.53
2019-04-26T21:37:35.924Z,19.07
2019-04-26T21:40:16.898Z,21.13
2019-04-26T21:42:45.308Z,20.83
2019-04-26T21:45:15.817Z,20.80
2019-04-26T21:48:06.734Z,22.57
2019-04-26T21:50:50.355Z,21.27
2019-04-26T21:54:19.446Z,19.67
2019-04-26T21:57:10.254Z,23.27
2019-04-26T22:00:37.342Z,22.33
2019-04-26T22:03:59.195Z,21.60
2019-04-26T22:06:50.786Z,20.33
2019-04-26T22:09:36.824Z,22.47
2019-04-26T22:12:07.547Z,23.67
2019-04-26T22:14:39.625Z,26.53
2019-04-26T22:17:22.625Z,22.90
2019-04-26T22:20:12.987Z,24.43
2019-04-26T22:23:02.744Z,21.27
2019-04-26T22:25:39.656Z,26.00
2019-04-26T22:29:00.739Z,22.60
2019-04-26T22:31:47.249Z,23.43
2019-04-26T22:34:13.418Z,21.80
2019-04-26T22:37:37.312Z,21.23
2019-04-26T22:40:10.536Z,24.47
2019-04-26T22:42:46.892Z,23.77
2019-04-26T22:45:39.506Z,22.87
2019-04-26T22:48:23.211Z,24.57
2019-04-26T22:50:52.113Z,24.93
2019-04-26T22:53:27.832Z,24.97
2019-04-26T22:56:07.227Z,25.30
2019-04-26T22:58:35.454Z,24.87
2019-04-26T23:01:06.538Z,30.20
2019-04-26T23:03:50.229Z,26.50
2019-04-26T23:06:21.257Z,26.73
2019-04-26T23:09:03.420Z,27.77
2019-04-26T23:11:45.376Z,26.73
2019-04-26T23:14:41.309Z,24.60
2019-04-26T23:17:34.945Z,25.83
2019-04-26T23:20:45.099Z,27.50
2019-04-26T23:23:29.501Z,25.20
2019-04-26T23:25:58.302Z,27.20
2019-04-26T23:28:27.752Z,26.50
2019-04-26T23:31:01.431Z,28.63
2019-04-26T23:33:40.194Z,27.63
2019-04-26T23:39:12.121Z,28.60
2019-04-26T23:42:03.829Z,27.00
2019-04-26T23:44:33.113Z,26.17
2019-04-26T23:47:02.166Z,27.07
2019-04-26T23:49:30.554Z,29.13
2019-04-26T23:52:03.709Z,27.40
2019-04-26T23:54:35.969Z,27.17
2019-04-26T23:57:05.836Z,29.03
2019-04-26T23:59:55.754Z,32.53
